createdAt,value
2023-04-05T00:01:03.691Z,-324.00
2023-04-05T00:06:10.872Z,-324.00
2023-04-05T00:11:18.109Z,-324.00
2023-04-05T00:16:25.367Z,-288.00
2023-04-05T00:21:32.569Z,-288.00
2023-04-05T00:26:39.862Z,-324.00
2023-04-05T00:31:47.173Z,-288.00
2023-04-05T00:36:54.471Z,-324.00
2023-04-05T00:42:01.749Z,-360.00
2023-04-05T00:47:08.989Z,-288.00
2023-04-05T00:52:16.255Z,-324.00
2023-04-05T00:57:23.589Z,-324.00
2023-04-05T01:02:31.068Z,-324.00
2023-04-05T01:07:38.464Z,-288.00
2023-04-05T01:12:45.852Z,-288.00
2023-04-05T01:17:53.186Z,-324.00
2023-04-05T01:23:10.682Z,-288.00
2023-04-05T01:28:13.514Z,-360.00
2023-04-05T01:33:25.864Z,-324.00
2023-04-05T01:38:45.760Z,-324.00
2023-04-05T01:43:50.734Z,-324.00
2023-04-05T01:49:01.784Z,-324.00
2023-04-05T01:54:10.821Z,-360.00
2023-04-05T02:00:12.256Z,-324.00
2023-04-05T02:05:07.055Z,-324.00
2023-04-05T02:10:13.194Z,-288.00
2023-04-05T02:15:25.837Z,-324.00
2023-04-05T02:20:38.111Z,-324.00
2023-04-05T02:25:48.840Z,-324.00
2023-04-05T02:31:38.464Z,-324.00
2023-04-05T02:36:55.371Z,-288.00
2023-04-05T02:41:59.706Z,-324.00
2023-04-05T02:47:07.342Z,-324.00
2023-04-05T02:52:16.735Z,-324.00
2023-04-05T02:57:24.809Z,-288.00
2023-04-05T03:02:35.495Z,-324.00
2023-04-05T03:07:44.089Z,-324.00
2023-04-05T03:12:54.997Z,-324.00
2023-04-05T03:17:59.905Z,-324.00
2023-04-05T03:23:07.289Z,-324.00
2023-04-05T03:28:14.892Z,-288.00
2023-04-05T03:33:25.945Z,-324.00
2023-04-05T03:38:33.233Z,-324.00
2023-04-05T03:43:40.754Z,-324.00
2023-04-05T03:48:48.122Z,-324.00
2023-04-05T03:53:55.626Z,-288.00
2023-04-05T03:59:38.070Z,-324.00
2023-04-05T04:05:21.164Z,-324.00
2023-04-05T04:10:31.364Z,-288.00
2023-04-05T04:15:46.363Z,-288.00
2023-04-05T04:20:54.076Z,-324.00
2023-04-05T04:26:01.842Z,-288.00
2023-04-05T04:31:28.841Z,-324.00
2023-04-05T04:36:35.668Z,-288.00
2023-04-05T04:41:49.903Z,-324.00
2023-04-05T04:47:07.659Z,-288.00
2023-04-05T04:52:16.477Z,-324.00
2023-04-05T04:57:33.553Z,-324.00
2023-04-05T05:02:40.892Z,-252.00
2023-04-05T05:07:58.112Z,-288.00
2023-04-05T05:13:10.323Z,-252.00
2023-04-05T05:18:17.939Z,-216.00
2023-04-05T05:23:25.375Z,-216.00
2023-04-05T05:28:39.717Z,-216.00
2023-04-05T05:34:05.959Z,-216.00
2023-04-05T05:39:25.921Z,-144.00
2023-04-05T05:44:32.033Z,-216.00
2023-04-05T05:49:40.048Z,-180.00
2023-04-05T05:55:06.534Z,-144.00
2023-04-05T06:00:14.006Z,-72.00
2023-04-05T06:05:24.029Z,-72.00
2023-04-05T06:10:30.186Z,-36.00
2023-04-05T06:15:53.354Z,-72.00
2023-04-05T06:21:05.544Z,15516.00
2023-04-05T06:27:01.066Z,15768.00
2023-04-05T06:34:27.149Z,15984.00
2023-04-05T06:37:42.179Z,16164.00
2023-04-05T06:44:33.789Z,16344.00
2023-04-05T06:48:40.313Z,16560.00
2023-04-05T06:54:39.734Z,16668.00
2023-04-05T06:59:07.328Z,16776.00
2023-04-05T07:04:50.158Z,16956.00
2023-04-05T07:09:57.500Z,17100.00
2023-04-05T07:15:25.935Z,17208.00
2023-04-05T07:20:48.860Z,17316.00
2023-04-05T07:25:56.559Z,17388.00
2023-04-05T07:31:08.940Z,17496.00
2023-04-05T07:36:24.693Z,17604.00
2023-04-05T07:41:34.658Z,17676.00
2023-04-05T07:47:21.994Z,17748.00
2023-04-05T07:52:36.042Z,17820.00
2023-04-05T07:57:55.394Z,17892.00
2023-04-05T08:03:35.846Z,17928.00
2023-04-05T08:08:49.437Z,18036.00
2023-04-05T08:14:36.677Z,18036.00
2023-04-05T08:19:59.381Z,18072.00
2023-04-05T08:25:43.516Z,18108.00
2023-04-05T08:31:01.525Z,18144.00
2023-04-05T08:36:11.165Z,18180.00
2023-04-05T08:41:58.461Z,18252.00
2023-04-05T08:47:41.031Z,18252.00
2023-04-05T08:53:29.754Z,18252.00
2023-04-05T08:58:44.408Z,18288.00
2023-04-05T09:04:00.648Z,18252.00
2023-04-05T09:09:01.817Z,18288.00
2023-04-05T09:14:44.505Z,18324.00
2023-04-05T09:20:02.467Z,18396.00
2023-04-05T09:25:06.549Z,18432.00
2023-04-05T09:30:13.980Z,18396.00
2023-04-05T09:35:21.707Z,18360.00
2023-04-05T09:40:38.917Z,18360.00
2023-04-05T09:45:46.265Z,18396.00
2023-04-05T09:50:56.518Z,18396.00
2023-04-05T09:56:16.191Z,18324.00
2023-04-05T10:01:23.738Z,18324.00
2023-04-05T10:06:31.500Z,18324.00
2023-04-05T10:11:39.032Z,18288.00
2023-04-05T10:16:46.676Z,18252.00
2023-04-05T10:21:54.091Z,18216.00
2023-04-05T10:27:01.470Z,18216.00
2023-04-05T10:32:08.920Z,18180.00
2023-04-05T10:37:16.333Z,18180.00
2023-04-05T10:42:23.668Z,18180.00
2023-04-05T10:47:31.218Z,18180.00
2023-04-05T10:52:38.540Z,18360.00
2023-04-05T10:57:45.932Z,18288.00
2023-04-05T11:02:53.444Z,18252.00
2023-04-05T11:08:00.918Z,18324.00
2023-04-05T11:13:08.360Z,18504.00
2023-04-05T11:18:16.009Z,18576.00
2023-04-05T11:23:26.464Z,18396.00
2023-04-05T11:28:33.837Z,18468.00
2023-04-05T11:33:41.298Z,18936.00
2023-04-05T11:38:48.843Z,18468.00
2023-04-05T11:43:56.298Z,18216.00
2023-04-05T11:49:03.935Z,18144.00
2023-04-05T11:54:11.621Z,18252.00
2023-04-05T11:59:19.228Z,18360.00
2023-04-05T12:04:32.048Z,18288.00
2023-04-05T12:10:14.378Z,18180.00
2023-04-05T12:15:21.939Z,18252.00
2023-04-05T12:20:47.397Z,18144.00
2023-04-05T12:25:49.401Z,18108.00
2023-04-05T12:30:56.866Z,18216.00
2023-04-05T12:36:10.148Z,18144.00
2023-04-05T12:41:52.564Z,18108.00
2023-04-05T12:47:12.038Z,18144.00
2023-04-05T12:52:19.460Z,18108.00
2023-04-05T12:57:26.931Z,18036.00
2023-04-05T13:02:34.792Z,18072.00
2023-04-05T13:07:45.577Z,18000.00
2023-04-05T13:12:53.156Z,17928.00
2023-04-05T13:18:00.595Z,17928.00
2023-04-05T13:23:08.096Z,17820.00
2023-04-05T13:28:50.437Z,17712.00
2023-04-05T13:33:58.036Z,17676.00
2023-04-05T13:39:41.476Z,17604.00
2023-04-05T13:50:11.243Z,17460.00
2023-04-05T13:55:18.729Z,17424.00
2023-04-05T14:00:35.289Z,17316.00
2023-04-05T14:05:53.063Z,17316.00
2023-04-05T14:10:58.405Z,17208.00
2023-04-05T14:16:05.925Z,17172.00
2023-04-05T14:21:13.225Z,17136.00
2023-04-05T14:26:20.603Z,17100.00
2023-04-05T14:31:31.263Z,17172.00
2023-04-05T14:36:38.768Z,17136.00
2023-04-05T14:41:46.193Z,16956.00
2023-04-05T14:46:53.428Z,17568.00
2023-04-05T14:52:00.884Z,18468.00
2023-04-05T14:57:18.317Z,17388.00
2023-04-05T15:02:37.057Z,17784.00
2023-04-05T15:07:56.948Z,16560.00
2023-04-05T15:13:39.753Z,16884.00
2023-04-05T15:19:37.427Z,15948.00
2023-04-05T15:24:45.001Z,15912.00
2023-04-05T15:30:01.570Z,17676.00
2023-04-05T15:35:15.212Z,17532.00
2023-04-05T15:40:26.842Z,17460.00
2023-04-05T15:45:34.389Z,17424.00
2023-04-05T15:50:42.031Z,17244.00
2023-04-05T15:56:29.539Z,17352.00
2023-04-05T16:01:39.961Z,16884.00
2023-04-05T16:06:52.150Z,16632.00
2023-04-05T16:11:59.562Z,16344.00
2023-04-05T16:17:07.185Z,16056.00
2023-04-05T16:22:14.586Z,15768.00
2023-04-05T16:27:22.328Z,15480.00
2023-04-05T16:33:04.875Z,15192.00
2023-04-05T16:38:33.320Z,14832.00
2023-04-05T16:43:25.230Z,14472.00
2023-04-05T16:48:32.715Z,14184.00
2023-04-05T16:53:49.531Z,13716.00
2023-04-05T16:59:07.582Z,12960.00
2023-04-05T17:04:13.018Z,12384.00
2023-04-05T17:09:26.571Z,11664.00
2023-04-05T17:14:41.502Z,10872.00
2023-04-05T17:20:43.162Z,9900.00
2023-04-05T17:25:01.795Z,8172.00
2023-04-05T17:30:09.155Z,7020.00
2023-04-05T17:35:16.572Z,5904.00
2023-04-05T17:40:24.531Z,4752.00
2023-04-05T17:45:32.218Z,3456.00
2023-04-05T17:51:15.514Z,2088.00
2023-04-05T17:56:44.484Z,1116.00
2023-04-05T18:01:43.563Z,432.00
2023-04-05T18:07:05.998Z,0.00
2023-04-05T18:12:13.253Z,-180.00
2023-04-05T18:17:20.497Z,-252.00
2023-04-05T18:22:27.719Z,-252.00
2023-04-05T18:27:35.113Z,-360.00
2023-04-05T18:32:42.633Z,-360.00
2023-04-05T18:37:49.943Z,-324.00
2023-04-05T18:42:57.233Z,-360.00
2023-04-05T18:48:04.468Z,-288.00
2023-04-05T18:53:11.718Z,-324.00
2023-04-05T18:58:19.086Z,-288.00
2023-04-05T19:03:27.280Z,-324.00
2023-04-05T19:08:34.564Z,-360.00
2023-04-05T19:13:41.992Z,-288.00
2023-04-05T19:18:49.130Z,-288.00
2023-04-05T19:23:56.344Z,-360.00
2023-04-05T19:29:03.563Z,-288.00
2023-04-05T19:34:10.861Z,-324.00
2023-04-05T19:39:18.404Z,9468.00
2023-04-05T19:44:25.802Z,9396.00
2023-04-05T19:49:33.058Z,9360.00
2023-04-05T19:54:40.555Z,9576.00
2023-04-05T19:59:47.933Z,9504.00
2023-04-05T20:04:55.111Z,9504.00
2023-04-05T20:10:02.435Z,9612.00
2023-04-05T20:15:09.679Z,9216.00
2023-04-05T20:20:16.869Z,9324.00
2023-04-05T20:25:24.129Z,9360.00
2023-04-05T20:30:31.340Z,9576.00
2023-04-05T20:35:38.534Z,9468.00
2023-04-05T20:40:45.690Z,9360.00
2023-04-05T20:45:53.025Z,9288.00
2023-04-05T20:51:00.062Z,9288.00
2023-04-05T20:56:07.334Z,9180.00
2023-04-05T21:01:14.562Z,9252.00
2023-04-05T21:06:21.715Z,9288.00
2023-04-05T21:11:28.897Z,9108.00
2023-04-05T21:16:36.099Z,9432.00
2023-04-05T21:21:43.271Z,9324.00
2023-04-05T21:26:50.764Z,-324.00
2023-04-05T21:32:34.075Z,-288.00
2023-04-05T21:38:16.544Z,-288.00
2023-04-05T21:43:25.854Z,-324.00
2023-04-05T21:48:39.755Z,-360.00
2023-04-05T21:53:47.090Z,-324.00
2023-04-05T21:58:54.507Z,-324.00
2023-04-05T22:04:01.810Z,-324.00
2023-04-05T22:09:09.270Z,-360.00
2023-04-05T22:14:16.334Z,-324.00
2023-04-05T22:19:23.631Z,-324.00
2023-04-05T22:24:30.794Z,-360.00
2023-04-05T22:29:37.987Z,-324.00
2023-04-05T22:34:45.189Z,-324.00
2023-04-05T22:39:52.367Z,-360.00
2023-04-05T22:44:59.510Z,-324.00
2023-04-05T22:50:06.839Z,-324.00
2023-04-05T22:55:13.892Z,-324.00
2023-04-05T23:00:21.082Z,-324.00
2023-04-05T23:05:28.412Z,-360.00
2023-04-05T23:10:35.719Z,-324.00
2023-04-05T23:15:43.166Z,-324.00
2023-04-05T23:20:52.645Z,-360.00
2023-04-05T23:26:10.936Z,-324.00
2023-04-05T23:31:18.389Z,-324.00
2023-04-05T23:36:29.172Z,-360.00
2023-04-05T23:41:36.799Z,-324.00
2023-04-05T23:46:47.141Z,-324.00
2023-04-05T23:51:56.055Z,-324.00
2023-04-05T23:57:12.649Z,-324.00
